Time;durP1;ratioP1;P1;durP2;ratioP2;P2;SDS_P1;SDS_P2;PMS_P1;PMS_P2;Temp;Humidity;BMP_temperature;BMP_pressure;BME280_temperature;BME280_humidity;BME280_pressure;Samples;Min_cycle;Max_cycle;Signal;HPM_P1;HPM_P2
2023/01/20 00:02:17;;;;;;;2.17;1.97;;;;;;;13.46;66.05;93722.16;5069604;28;20576;-48
2023/01/20 00:04:44;;;;;;;3.57;2.10;;;;;;;13.43;65.92;93736.19;5070145;28;20190;-47
2023/01/20 00:07:10;;;;;;;2.30;2.10;;;;;;;13.43;66.09;93731.06;5070999;28;20201;-47
2023/01/20 00:09:37;;;;;;;2.33;2.00;;;;;;;13.41;66.18;93696.22;5069642;28;20684;-48
2023/01/20 00:12:04;;;;;;;2.00;1.90;;;;;;;13.40;66.01;93694.66;5069440;28;20194;-47
2023/01/20 00:14:33;;;;;;;1.70;1.60;;;;;;;13.19;66.05;93614.00;5069124;28;20186;-48
2023/01/20 00:17:00;;;;;;;2.13;1.67;;;;;;;13.29;66.31;93558.03;5068924;28;20883;-47
2023/01/20 00:19:27;;;;;;;2.00;1.90;;;;;;;13.24;66.44;93497.94;5069433;28;20240;-47
2023/01/20 00:21:53;;;;;;;1.87;1.77;;;;;;;13.15;66.75;93475.91;5069642;28;20687;-46
2023/01/20 00:24:20;;;;;;;2.53;1.80;;;;;;;13.11;67.24;93526.03;5069295;28;20614;-47
2023/01/20 00:26:47;;;;;;;2.67;1.70;;;;;;;13.02;67.58;93504.81;5069174;28;20209;-46
2023/01/20 00:29:14;;;;;;;1.70;1.60;;;;;;;12.98;67.71;93530.03;5069017;28;20605;-47
2023/01/20 00:31:42;;;;;;;2.47;2.20;;;;;;;12.96;67.77;93531.22;5069263;28;20255;-47
2023/01/20 00:34:11;;;;;;;1.87;1.77;;;;;;;12.93;68.08;93532.34;5069194;28;20182;-48
2023/01/20 00:36:37;;;;;;;1.90;1.80;;;;;;;12.90;68.31;93513.97;5069239;28;20221;-47
2023/01/20 00:39:05;;;;;;;3.27;1.60;;;;;;;12.88;67.94;93508.22;5069195;28;20206;-48
2023/01/20 00:41:32;;;;;;;1.50;1.40;;;;;;;12.86;68.30;93485.28;5068881;28;20195;-48
2023/01/20 00:43:59;;;;;;;2.73;1.60;;;;;;;12.84;68.28;93466.75;5069517;28;20205;-47
2023/01/20 00:46:26;;;;;;;1.63;1.53;;;;;;;12.86;68.05;93480.16;5068754;28;20194;-48
2023/01/20 00:48:54;;;;;;;2.63;1.70;;;;;;;12.84;68.13;93474.44;5068578;28;20260;-47
2023/01/20 00:51:21;;;;;;;1.93;1.50;;;;;;;12.84;68.21;93483.91;5068885;28;20182;-48
2023/01/20 00:53:47;;;;;;;1.60;1.50;;;;;;;12.71;68.15;93466.59;5069677;28;20186;-48
2023/01/20 00:56:14;;;;;;;1.57;1.53;;;;;;;12.81;68.12;93496.09;5068991;28;20195;-47
2023/01/20 00:58:42;;;;;;;1.63;1.53;;;;;;;12.84;68.24;93502.66;5068505;28;20218;-47
2023/01/20 01:01:09;;;;;;;2.37;1.60;;;;;;;12.83;68.05;93477.97;5068384;28;20229;-48
2023/01/20 01:03:54;;;;;;;1.83;1.70;;;;;;;12.81;68.20;93479.91;5026655;28;20278;-46
2023/01/20 01:06:22;;;;;;;1.90;1.80;;;;;;;12.81;68.34;93485.84;5026117;28;20330;-46
2023/01/20 01:08:49;;;;;;;2.17;1.57;;;;;;;12.80;68.00;93474.00;5026736;28;20188;-47
2023/01/20 01:11:16;;;;;;;1.63;1.53;;;;;;;12.79;68.12;93474.97;5025961;28;20200;-47
2023/01/20 01:13:43;;;;;;;1.80;1.70;;;;;;;12.79;68.14;93482.69;5026454;28;20191;-48
2023/01/20 01:16:11;;;;;;;1.50;1.47;;;;;;;12.76;68.41;93484.81;5026220;28;20199;-47
2023/01/20 01:18:38;;;;;;;1.33;1.33;;;;;;;12.76;68.09;93498.41;5026216;28;20322;-48
2023/01/20 01:21:11;;;;;;;2.60;1.60;;;;;;;12.77;68.33;93478.69;5023642;28;20222;-48
2023/01/20 01:23:38;;;;;;;1.43;1.40;;;;;;;12.76;68.28;93462.50;5025183;28;20733;-47
2023/01/20 01:26:05;;;;;;;1.60;1.50;;;;;;;12.71;68.27;93492.25;5025894;28;20188;-48
2023/01/20 01:28:32;;;;;;;1.50;1.40;;;;;;;12.69;68.53;93471.88;5026642;28;20196;-49
2023/01/20 01:31:01;;;;;;;2.03;1.83;;;;;;;12.74;68.48;93489.34;5026149;28;20184;-46
2023/01/20 01:33:28;;;;;;;2.20;1.50;;;;;;;12.73;68.41;93483.38;5025605;28;20776;-48
2023/01/20 01:35:56;;;;;;;1.30;1.30;;;;;;;12.73;68.46;93480.03;5026558;28;20702;-49
2023/01/20 01:38:25;;;;;;;1.60;1.50;;;;;;;12.74;68.32;93490.13;5026009;28;20728;-47
2023/01/20 01:40:53;;;;;;;1.63;1.50;;;;;;;12.78;68.44;93490.56;5042032;28;20670;-48
2023/01/20 01:43:23;;;;;;;1.70;1.60;;;;;;;12.62;68.20;93470.25;5067908;28;20200;-47
2023/01/20 01:45:50;;;;;;;1.50;1.40;;;;;;;12.75;68.39;93476.31;5068583;28;20273;-47
2023/01/20 01:48:20;;;;;;;1.87;1.53;;;;;;;12.69;68.45;93491.63;5068451;28;20194;-47
2023/01/20 01:50:51;;;;;;;3.07;1.40;;;;;;;12.77;68.30;93507.69;5068409;28;20671;-47
2023/01/20 01:53:18;;;;;;;1.57;1.50;;;;;;;12.78;68.40;93505.97;5067830;28;20644;-47
2023/01/20 01:55:50;;;;;;;1.57;1.47;;;;;;;12.78;68.35;93504.19;5072072;28;20186;-46
2023/01/20 01:58:23;;;;;;;1.70;1.60;;;;;;;12.74;68.33;93495.25;5071738;28;20301;-47
2023/01/20 02:00:50;;;;;;;1.50;1.40;;;;;;;12.80;68.25;93502.22;5072117;28;20230;-47
2023/01/20 02:03:17;;;;;;;1.70;1.60;;;;;;;12.79;68.19;93504.97;5071321;28;20690;-48
2023/01/20 02:05:46;;;;;;;1.77;1.67;;;;;;;12.80;68.28;93504.00;5071888;28;20187;-47
2023/01/20 02:08:13;;;;;;;2.23;1.40;;;;;;;12.80;68.22;93502.22;5071581;28;20553;-48
2023/01/20 02:10:39;;;;;;;1.57;1.50;;;;;;;12.80;68.31;93493.72;5071987;28;20641;-47
2023/01/20 02:13:08;;;;;;;1.60;1.50;;;;;;;12.80;68.19;93481.69;5071216;28;20198;-48
2023/01/20 02:15:42;;;;;;;1.60;1.50;;;;;;;12.81;68.12;93467.88;5071550;28;20187;-49
2023/01/20 02:18:33;;;;;;;1.60;1.50;;;;;;;12.81;68.09;93474.78;5071404;28;20326;-49
2023/01/20 02:21:48;;;;;;;1.37;1.30;;;;;;;12.80;68.14;93468.88;5071921;28;20964;-48
2023/01/20 02:24:57;;;;;;;1.60;1.50;;;;;;;12.81;68.15;93478.16;5071646;28;20595;-50
2023/01/20 02:27:40;;;;;;;1.60;1.50;;;;;;;12.80;67.98;93468.06;5049040;28;20190;-47
2023/01/20 02:30:28;;;;;;;1.70;1.60;;;;;;;12.78;68.07;93468.25;5049060;28;20268;-47
2023/01/20 02:33:02;;;;;;;1.30;1.30;;;;;;;12.79;68.10;93463.94;5049909;28;20256;-47
2023/01/20 02:35:37;;;;;;;1.97;1.60;;;;;;;12.79;68.13;93464.72;5048954;28;20183;-47
2023/01/20 02:38:14;;;;;;;2.13;1.60;;;;;;;12.77;68.18;93468.44;5048270;28;20226;-47
2023/01/20 02:40:48;;;;;;;1.30;1.30;;;;;;;12.75;68.33;93463.50;5054489;28;20191;-48
2023/01/20 02:43:23;;;;;;;1.97;1.77;;;;;;;12.76;68.21;93462.50;5054999;28;20590;-49
2023/01/20 02:45:58;;;;;;;1.60;1.50;;;;;;;12.75;68.30;93458.34;5052866;28;20519;-48
2023/01/20 02:48:32;;;;;;;1.37;1.37;;;;;;;12.75;68.30;93452.44;5047867;28;20198;-47
2023/01/20 02:51:02;;;;;;;1.73;1.60;;;;;;;12.72;68.42;93448.44;5048676;28;20199;-49
2023/01/20 02:53:36;;;;;;;5.23;1.97;;;;;;;12.71;68.38;93448.66;5048424;28;20677;-50
2023/01/20 02:56:04;;;;;;;2.00;1.73;;;;;;;12.71;68.43;93434.03;5048403;28;20195;-47
2023/01/20 02:58:36;;;;;;;1.40;1.40;;;;;;;12.69;68.23;93419.81;5048014;28;20206;-47
2023/01/20 03:01:09;;;;;;;1.90;1.70;;;;;;;12.69;68.34;93420.59;5048473;28;20653;-48
2023/01/20 03:03:40;;;;;;;1.80;1.70;;;;;;;12.70;68.40;93422.19;5059012;28;20285;-49
2023/01/20 03:06:12;;;;;;;1.70;1.60;;;;;;;12.66;68.25;93417.63;5070347;28;20178;-49
2023/01/20 03:08:40;;;;;;;1.63;1.53;;;;;;;12.67;68.25;93425.13;5070909;28;20248;-48
2023/01/20 03:11:09;;;;;;;2.57;2.17;;;;;;;12.54;68.45;93418.09;5070756;28;20203;-49
2023/01/20 03:13:41;;;;;;;1.90;1.80;;;;;;;12.68;68.47;93424.13;5070443;28;20575;-49
2023/01/20 03:16:12;;;;;;;2.13;1.80;;;;;;;12.69;68.28;93424.94;5070642;28;20213;-47
2023/01/20 03:18:40;;;;;;;3.23;1.90;;;;;;;12.70;68.59;93429.91;5070036;28;20332;-48
2023/01/20 03:21:09;;;;;;;2.07;1.70;;;;;;;12.67;68.29;93422.56;5070477;28;20201;-48
2023/01/20 03:23:37;;;;;;;1.60;1.50;;;;;;;12.70;68.37;93431.66;5070263;28;20194;-48
2023/01/20 03:26:08;;;;;;;2.20;1.70;;;;;;;12.69;68.46;93430.06;5070269;28;20206;-46
2023/01/20 03:28:35;;;;;;;2.07;1.70;;;;;;;12.65;68.26;93423.69;5070142;28;20766;-47
2023/01/20 03:31:09;;;;;;;2.10;1.63;;;;;;;12.69;68.34;93420.59;5070398;28;20194;-47
2023/01/20 03:33:36;;;;;;;2.03;1.90;;;;;;;12.69;68.73;93430.84;5069880;28;20289;-48
2023/01/20 03:36:05;;;;;;;1.83;1.73;;;;;;;12.70;68.54;93431.66;5070554;28;20179;-47
2023/01/20 03:38:32;;;;;;;1.63;1.53;;;;;;;12.59;68.35;93414.19;5069712;28;20210;-48
2023/01/20 03:41:04;;;;;;;2.30;1.87;;;;;;;12.69;68.54;93440.31;5070342;28;20573;-46
2023/01/20 03:43:41;;;;;;;2.00;1.80;;;;;;;12.68;68.66;93439.53;5069986;28;20251;-47
2023/01/20 03:46:15;;;;;;;1.87;1.77;;;;;;;12.69;68.57;93438.53;5070604;28;20248;-49
2023/01/20 03:48:49;;;;;;;1.77;1.67;;;;;;;12.70;68.83;93423.97;5069555;28;20521;-48
2023/01/20 03:51:25;;;;;;;2.03;1.70;;;;;;;12.71;68.65;93421.22;5069826;28;20564;-48
2023/01/20 03:53:56;;;;;;;1.40;1.40;;;;;;;12.71;68.60;93405.81;5070027;28;20213;-46
2023/01/20 03:56:28;;;;;;;1.77;1.67;;;;;;;12.72;68.66;93399.72;5069985;28;20194;-48
2023/01/20 03:59:00;;;;;;;1.50;1.40;;;;;;;12.73;68.87;93387.69;5069415;28;20228;-47
2023/01/20 04:01:32;;;;;;;1.70;1.60;;;;;;;12.75;68.70;93388.31;5054457;28;20218;-48
2023/01/20 04:04:01;;;;;;;2.27;1.60;;;;;;;12.73;68.45;93374.84;5069018;28;20222;-47
2023/01/20 04:06:32;;;;;;;1.83;1.40;;;;;;;12.73;68.63;93375.66;5069751;28;20641;-47
2023/01/20 04:09:02;;;;;;;1.67;1.53;;;;;;;12.76;68.65;93382.97;5070823;28;20190;-48
2023/01/20 04:11:29;;;;;;;1.50;1.40;;;;;;;12.75;68.57;93371.16;5071549;28;20189;-49
2023/01/20 04:13:56;;;;;;;1.67;1.57;;;;;;;12.79;68.65;93379.28;5070164;28;20190;-48
2023/01/20 04:16:25;;;;;;;1.60;1.50;;;;;;;12.67;68.48;93360.22;5070473;28;20187;-47
2023/01/20 04:18:52;;;;;;;1.83;1.50;;;;;;;12.77;68.50;93355.56;5069349;28;20577;-46
2023/01/20 04:21:26;;;;;;;1.47;1.40;;;;;;;12.84;68.57;93364.13;5068712;28;20182;-47
2023/01/20 04:24:00;;;;;;;1.80;1.70;;;;;;;12.85;68.60;93352.09;5069109;28;20198;-46
2023/01/20 04:26:27;;;;;;;1.43;1.33;;;;;;;12.85;68.67;93358.00;5069605;28;20190;-48
2023/01/20 04:28:54;;;;;;;1.50;1.40;;;;;;;12.83;68.58;93349.72;5069279;28;20182;-48
2023/01/20 04:31:20;;;;;;;1.93;1.60;;;;;;;12.88;68.71;93352.50;5069245;28;20197;-49
2023/01/20 04:33:47;;;;;;;2.67;1.40;;;;;;;12.90;68.63;93342.84;5069873;28;20213;-47
2023/01/20 04:36:14;;;;;;;2.03;1.53;;;;;;;12.93;68.58;93349.38;5069222;28;20186;-48
2023/01/20 04:38:41;;;;;;;1.50;1.40;;;;;;;12.90;68.70;93357.44;5068649;28;20217;-47
2023/01/20 04:41:11;;;;;;;2.33;1.47;;;;;;;12.87;68.65;93345.00;5069038;28;20284;-47
2023/01/20 04:43:38;;;;;;;1.60;1.50;;;;;;;12.94;68.80;93364.59;5069372;28;20191;-48
2023/01/20 04:46:05;;;;;;;1.43;1.33;;;;;;;12.96;68.75;93375.47;5069927;28;20194;-47
2023/01/20 04:48:32;;;;;;;1.67;1.57;;;;;;;12.96;68.67;93369.56;5069410;28;20301;-48
2023/01/20 04:50:59;;;;;;;1.70;1.60;;;;;;;12.97;68.58;93379.63;5068826;28;20189;-49
2023/01/20 04:53:25;;;;;;;1.93;1.40;;;;;;;12.98;68.84;93386.34;5068699;28;20186;-47
2023/01/20 04:55:52;;;;;;;2.13;1.50;;;;;;;12.93;68.65;93377.63;5068569;28;20194;-47
2023/01/20 04:58:20;;;;;;;1.70;1.60;;;;;;;13.00;68.84;93388.75;5068392;28;20190;-47
2023/01/20 05:00:47;;;;;;;1.60;1.50;;;;;;;12.99;68.72;93393.06;5068295;28;20238;-49
2023/01/20 05:03:14;;;;;;;3.20;1.60;;;;;;;12.99;68.96;93403.31;5068611;28;20553;-50
2023/01/20 05:05:41;;;;;;;2.97;1.90;;;;;;;12.99;68.77;93418.72;5068660;28;20194;-49
2023/01/20 05:08:07;;;;;;;2.20;2.00;;;;;;;12.99;68.93;93421.28;5069118;28;20633;-48
2023/01/20 05:10:34;;;;;;;1.67;1.57;;;;;;;12.97;69.08;93414.75;5068378;28;20197;-49
2023/01/20 05:13:01;;;;;;;2.57;1.77;;;;;;;13.00;68.86;93412.63;5068721;28;20182;-47
2023/01/20 05:15:29;;;;;;;2.13;1.90;;;;;;;12.98;68.97;93399.16;5068446;28;20644;-48
2023/01/20 05:17:56;;;;;;;1.80;1.70;;;;;;;13.00;69.20;93404.94;5068814;28;20198;-47
2023/01/20 05:20:23;;;;;;;2.27;2.00;;;;;;;12.93;69.06;93385.31;5067753;28;20580;-49
2023/01/20 05:22:50;;;;;;;4.40;2.07;;;;;;;13.00;69.21;93402.38;5068120;28;20201;-47
2023/01/20 05:25:17;;;;;;;2.47;1.70;;;;;;;13.02;69.07;93415.78;5068601;28;20190;-46
2023/01/20 05:27:44;;;;;;;3.50;1.80;;;;;;;13.02;68.97;93402.16;5069145;28;20194;-47
2023/01/20 05:30:11;;;;;;;1.83;1.73;;;;;;;13.02;69.11;93413.22;5072140;28;20290;-47
2023/01/20 05:32:39;;;;;;;2.37;1.90;;;;;;;13.02;69.23;93418.34;5071844;28;20186;-50
2023/01/20 05:35:07;;;;;;;2.20;2.00;;;;;;;13.02;69.11;93430.41;5072193;28;20694;-49
2023/01/20 05:37:34;;;;;;;4.33;1.97;;;;;;;13.02;68.98;93431.19;5072030;28;20202;-47
2023/01/20 05:40:01;;;;;;;3.20;2.90;;;;;;;13.01;69.14;93428.81;5072867;28;20218;-47
2023/01/20 05:42:28;;;;;;;3.40;2.10;;;;;;;13.03;69.25;93404.53;5071977;28;20183;-47
2023/01/20 05:44:54;;;;;;;5.53;1.73;;;;;;;13.67;94.70;93406.25;5072322;28;20193;-46
2023/01/20 05:47:21;;;;;;;1.40;1.40;;;;;;;14.47;95.42;93392.00;5072064;28;20276;-47
2023/01/20 05:49:49;;;;;;;3.67;1.50;;;;;;;15.20;91.91;93387.00;5071910;28;20186;-45
2023/01/20 05:52:16;;;;;;;2.30;1.60;;;;;;;15.83;88.89;93386.56;5072017;28;20186;-46
2023/01/20 05:54:43;;;;;;;2.33;1.80;;;;;;;16.30;86.10;93369.94;5072565;28;20183;-46
2023/01/20 05:57:10;;;;;;;3.03;1.83;;;;;;;16.40;84.02;93358.38;5072251;28;20187;-48
2023/01/20 05:59:37;;;;;;;2.50;1.83;;;;;;;16.27;80.50;93400.50;5071632;28;20231;-47
2023/01/20 06:02:03;;;;;;;2.00;1.80;;;;;;;16.10;78.81;93402.75;5071795;28;20222;-48
2023/01/20 06:04:30;;;;;;;1.67;1.57;;;;;;;15.92;77.98;93395.66;5071323;28;20190;-49
2023/01/20 06:06:58;;;;;;;3.00;1.67;;;;;;;15.75;77.60;93410.75;5071930;28;20188;-47
2023/01/20 06:09:25;;;;;;;3.00;1.70;;;;;;;15.61;77.11;93416.91;5071637;28;20209;-49
2023/01/20 06:11:52;;;;;;;6.70;2.17;;;;;;;15.45;76.91;93404.41;5072352;28;20258;-47
2023/01/20 06:14:19;;;;;;;3.87;2.00;;;;;;;15.31;76.46;93411.34;5071984;28;20186;-48
2023/01/20 06:16:45;;;;;;;2.40;2.00;;;;;;;15.12;76.08;93410.38;5072353;28;20190;-48
2023/01/20 06:19:12;;;;;;;2.63;2.07;;;;;;;14.98;76.02;93419.03;5071635;28;20593;-47
2023/01/20 06:21:39;;;;;;;2.80;2.03;;;;;;;14.84;75.73;93413.09;5071640;28;20190;-48
2023/01/20 06:24:08;;;;;;;3.00;2.30;;;;;;;14.71;75.49;93400.19;5071692;28;20194;-47
2023/01/20 06:26:34;;;;;;;2.40;2.13;;;;;;;14.58;75.43;93405.31;5071539;28;20684;-47
2023/01/20 06:29:01;;;;;;;3.27;2.20;;;;;;;14.45;75.41;93399.09;5071780;28;20187;-46
2023/01/20 06:31:28;;;;;;;3.87;2.07;;;;;;;14.33;75.12;93380.06;5071828;28;20186;-47
2023/01/20 06:33:55;;;;;;;4.60;2.20;;;;;;;14.25;75.12;93393.91;5071799;28;20187;-47
2023/01/20 06:36:22;;;;;;;2.97;2.30;;;;;;;14.17;75.15;93412.06;5071346;28;20191;-47
2023/01/20 06:38:51;;;;;;;3.73;2.60;;;;;;;13.97;75.19;93386.25;5071703;28;20387;-48
2023/01/20 06:41:21;;;;;;;2.23;2.03;;;;;;;13.85;75.03;93377.47;5071158;28;20209;-48
2023/01/20 06:43:49;;;;;;;3.27;2.30;;;;;;;13.97;74.81;93404.25;5071852;28;20186;-47
2023/01/20 06:46:16;;;;;;;3.43;2.27;;;;;;;13.96;74.85;93394.94;5071244;28;20191;-49
2023/01/20 06:48:44;;;;;;;2.10;2.00;;;;;;;13.93;74.72;93391.97;5069774;28;20562;-47
2023/01/20 06:51:13;;;;;;;2.70;2.13;;;;;;;13.87;74.45;93387.59;5062271;28;20195;-45
2023/01/20 06:53:41;;;;;;;3.30;2.43;;;;;;;13.85;74.40;93389.53;5071153;28;20575;-46
2023/01/20 06:56:10;;;;;;;4.47;2.47;;;;;;;13.70;74.55;93379.41;5067962;28;20186;-46
2023/01/20 06:58:39;;;;;;;3.63;2.20;;;;;;;13.77;74.38;93387.91;5070515;28;20193;-47
2023/01/20 07:01:08;;;;;;;2.47;2.27;;;;;;;13.73;74.25;93387.53;5070073;28;20846;-47
2023/01/20 07:03:35;;;;;;;3.40;2.50;;;;;;;13.60;74.28;93374.59;5070741;28;20671;-53
2023/01/20 07:06:07;;;;;;;4.37;2.67;;;;;;;13.69;74.21;93377.81;5071026;28;20230;-47
2023/01/20 07:08:34;;;;;;;4.53;2.67;;;;;;;13.65;74.18;93379.16;5070857;28;20826;-47
2023/01/20 07:11:01;;;;;;;4.77;2.40;;;;;;;13.64;74.06;93372.41;5071476;28;20194;-47
2023/01/20 07:13:27;;;;;;;2.10;1.90;;;;;;;13.62;73.88;93382.09;5070850;28;20205;-48
2023/01/20 07:15:56;;;;;;;3.87;2.40;;;;;;;13.60;73.83;93391.75;5067941;28;20203;-49
2023/01/20 07:18:22;;;;;;;2.73;2.50;;;;;;;13.58;73.90;93394.53;5070376;28;20576;-46
2023/01/20 07:20:54;;;;;;;4.97;2.33;;;;;;;13.58;73.78;93393.75;5067560;28;21785;-48
2023/01/20 07:23:21;;;;;;;3.63;2.33;;;;;;;13.54;73.75;93388.19;5068130;28;20201;-47
2023/01/20 07:25:47;;;;;;;3.23;2.30;;;;;;;13.54;73.74;93391.53;5070118;28;20205;-46
2023/01/20 07:28:15;;;;;;;4.20;2.10;;;;;;;13.53;73.69;93395.09;5068805;28;20194;-46
2023/01/20 07:30:41;;;;;;;1.90;1.70;;;;;;;13.63;77.58;93394.75;5065979;28;20244;-48
2023/01/20 07:33:09;;;;;;;2.23;2.03;;;;;;;13.95;80.63;93390.00;5068343;28;20603;-47
2023/01/20 07:35:36;;;;;;;2.40;2.20;;;;;;;14.00;79.43;93380.72;5069048;28;20191;-49
2023/01/20 07:38:03;;;;;;;2.93;2.13;;;;;;;13.95;80.11;93365.09;5069376;28;20274;-47
2023/01/20 07:40:30;;;;;;;2.43;2.23;;;;;;;13.97;79.58;93364.91;5069217;28;20217;-48
2023/01/20 07:42:56;;;;;;;2.73;2.17;;;;;;;13.92;78.99;93352.63;5068865;28;20632;-48
2023/01/20 07:45:23;;;;;;;4.13;2.27;;;;;;;13.87;78.84;93356.75;5068856;28;20190;-46
2023/01/20 07:47:50;;;;;;;4.67;2.70;;;;;;;13.82;78.28;93359.91;5069240;28;20190;-48
2023/01/20 07:50:18;;;;;;;3.30;2.30;;;;;;;13.78;77.91;93353.56;5069178;28;20201;-47
2023/01/20 07:52:45;;;;;;;2.50;2.30;;;;;;;13.73;77.71;93356.69;5067959;28;20209;-47
2023/01/20 07:55:12;;;;;;;3.03;2.17;;;;;;;13.70;77.28;93349.34;5068062;28;20205;-47
2023/01/20 07:57:38;;;;;;;2.83;2.30;;;;;;;13.60;76.93;93323.22;5069058;28;20668;-47
2023/01/20 08:00:06;;;;;;;2.80;2.43;;;;;;;13.62;76.63;93346.16;5068793;28;20233;-48
2023/01/20 08:02:37;;;;;;;3.20;2.30;;;;;;;13.61;76.37;93360.78;5068928;28;20183;-47
2023/01/20 08:05:04;;;;;;;2.50;2.30;;;;;;;13.59;76.32;93355.00;5066340;28;20190;-46
2023/01/20 08:07:32;;;;;;;2.27;2.07;;;;;;;13.59;75.90;93333.66;5068377;28;20194;-48
2023/01/20 08:09:59;;;;;;;2.83;2.30;;;;;;;13.57;75.90;93318.47;5066676;28;20191;-47
2023/01/20 08:12:26;;;;;;;2.57;2.37;;;;;;;13.58;75.51;93316.69;5069062;28;20186;-46
2023/01/20 08:14:52;;;;;;;5.57;2.50;;;;;;;13.58;75.26;93325.19;5068186;28;20190;-48
2023/01/20 08:17:24;;;;;;;3.63;2.60;;;;;;;13.56;75.30;93322.03;5069595;28;20183;-47
2023/01/20 08:19:51;;;;;;;3.67;2.60;;;;;;;13.55;75.08;93333.25;5070218;28;20252;-49
2023/01/20 08:22:18;;;;;;;3.00;2.50;;;;;;;13.51;74.98;93338.00;5067823;28;20248;-48
2023/01/20 08:24:46;;;;;;;3.00;2.77;;;;;;;13.52;74.69;93343.94;5068998;28;20186;-47
2023/01/20 08:27:13;;;;;;;3.50;2.50;;;;;;;13.52;74.86;93346.50;5068889;28;20186;-52
2023/01/20 08:29:39;;;;;;;4.07;3.03;;;;;;;13.52;74.64;93338.78;5068688;28;20660;-49
2023/01/20 08:32:06;;;;;;;3.63;2.87;;;;;;;13.50;74.59;93338.16;5069076;28;20186;-47
2023/01/20 08:34:34;;;;;;;2.90;2.60;;;;;;;13.57;74.46;93335.66;5068657;28;20197;-48
2023/01/20 08:37:01;;;;;;;3.10;2.70;;;;;;;13.55;73.97;93323.75;5068341;28;20201;-47
2023/01/20 08:39:28;;;;;;;3.40;2.90;;;;;;;13.58;73.98;93314.91;5068569;28;20273;-47
2023/01/20 08:41:56;;;;;;;3.90;3.30;;;;;;;13.61;73.78;93296.56;5068412;28;20269;-47
2023/01/20 08:44:23;;;;;;;2.97;2.33;;;;;;;13.62;73.68;93280.16;5068762;28;20190;-50
2023/01/20 08:46:51;;;;;;;2.70;2.50;;;;;;;13.65;73.46;93286.69;5068429;28;20186;-46
2023/01/20 08:49:20;;;;;;;4.70;2.60;;;;;;;13.63;73.40;93284.28;5068383;28;20201;-48
2023/01/20 08:51:47;;;;;;;3.37;2.83;;;;;;;13.70;73.14;93274.84;5067470;28;20194;-46
2023/01/20 08:54:14;;;;;;;2.60;2.30;;;;;;;13.75;72.99;93264.00;5068637;28;20191;-47
2023/01/20 08:56:41;;;;;;;3.20;2.40;;;;;;;13.81;72.63;93261.44;5068518;28;20194;-48
2023/01/20 08:59:10;;;;;;;4.00;2.63;;;;;;;13.88;72.62;93265.81;5068735;28;20259;-47
2023/01/20 09:01:37;;;;;;;4.00;2.73;;;;;;;13.96;72.50;93273.38;5066763;28;20229;-48
2023/01/20 09:04:05;;;;;;;3.40;2.77;;;;;;;14.02;72.16;93267.44;5068245;28;20198;-47
2023/01/20 09:06:38;;;;;;;6.20;2.57;;;;;;;13.97;72.09;93247.47;5067491;28;20191;-49
2023/01/20 09:09:04;;;;;;;2.67;2.43;;;;;;;14.20;71.71;93272.03;5068660;28;20194;-50
2023/01/20 09:11:31;;;;;;;4.57;3.03;;;;;;;14.29;71.42;93263.97;5067277;28;20717;-49
2023/01/20 09:13:58;;;;;;;4.03;2.80;;;;;;;14.40;71.32;93274.66;5068196;28;20209;-50
2023/01/20 09:16:26;;;;;;;6.63;2.90;;;;;;;14.49;70.98;93279.44;5067940;28;20183;-48
2023/01/20 09:18:53;;;;;;;3.40;3.07;;;;;;;14.58;70.78;93274.09;5067905;28;20656;-50
2023/01/20 09:21:20;;;;;;;3.33;2.63;;;;;;;14.68;70.82;93282.22;5067792;28;20218;-49
2023/01/20 09:23:47;;;;;;;2.87;2.67;;;;;;;14.74;70.54;93274.50;5068357;28;20228;-47
2023/01/20 09:26:14;;;;;;;3.53;2.90;;;;;;;14.81;70.32;93274.53;5067973;28;20190;-49
2023/01/20 09:28:44;;;;;;;2.70;2.50;;;;;;;14.91;70.18;93274.13;5066515;28;20213;-48
2023/01/20 09:31:12;;;;;;;2.90;2.70;;;;;;;15.01;70.04;93271.91;5067255;28;20190;-46
2023/01/20 09:33:40;;;;;;;3.37;2.77;;;;;;;15.08;69.73;93272.72;5066959;28;20271;-49
2023/01/20 09:36:10;;;;;;;2.53;2.33;;;;;;;15.16;69.37;93264.00;5067568;28;20728;-49
2023/01/20 09:44:26;;;;;;;4.13;3.03;;;;;;;15.25;68.98;93255.06;5068099;28;20206;-47
2023/01/20 09:47:20;;;;;;;2.83;2.53;;;;;;;15.26;68.95;93270.31;5067016;28;20202;-47
2023/01/20 09:53:05;;;;;;;2.90;2.23;;;;;;;15.25;68.61;93263.59;5066685;28;20687;-47
2023/01/20 09:55:41;;;;;;;2.13;2.03;;;;;;;15.23;68.66;93257.81;5063100;28;20770;-47
2023/01/20 09:58:25;;;;;;;2.30;2.10;;;;;;;15.25;68.41;93245.56;5065890;28;20187;-46
2023/01/20 10:00:58;;;;;;;2.50;2.30;;;;;;;15.18;68.15;93215.66;5066083;28;20234;-46
2023/01/20 10:03:35;;;;;;;2.30;2.10;;;;;;;15.46;68.08;93238.56;5064694;28;20190;-50
2023/01/20 10:06:07;;;;;;;2.40;2.20;;;;;;;15.66;67.72;93239.31;5065151;28;20201;-47
2023/01/20 10:08:42;;;;;;;4.50;2.60;;;;;;;15.88;66.92;93239.81;5063182;28;20196;-47
2023/01/20 10:11:12;;;;;;;2.50;2.30;;;;;;;16.07;66.64;93248.44;5067258;28;20179;-48
2023/01/20 10:13:46;;;;;;;2.27;2.10;;;;;;;16.19;66.32;93233.09;5065821;28;20194;-47
2023/01/20 10:16:24;;;;;;;2.27;1.90;;;;;;;16.15;66.02;93214.69;5068472;28;20213;-49
2023/01/20 10:18:56;;;;;;;2.13;2.03;;;;;;;16.36;66.12;93207.59;5069330;28;20229;-49
2023/01/20 10:21:31;;;;;;;2.63;1.93;;;;;;;16.50;65.99;93198.78;5065231;28;20233;-46
2023/01/20 10:24:02;;;;;;;3.50;2.23;;;;;;;16.62;65.71;93199.63;5065530;28;20189;-49
2023/01/20 10:26:37;;;;;;;4.53;2.20;;;;;;;16.67;65.46;93206.78;5067999;28;20198;-47
2023/01/20 10:29:06;;;;;;;2.57;2.37;;;;;;;16.70;65.46;93216.66;5067615;28;20186;-48
2023/01/20 10:31:36;;;;;;;2.70;2.27;;;;;;;16.71;65.55;93213.06;5064902;28;20660;-48
2023/01/20 10:34:10;;;;;;;2.30;2.10;;;;;;;16.74;65.49;93205.72;5065328;28;20672;-50
2023/01/20 10:36:41;;;;;;;2.57;2.27;;;;;;;16.75;65.21;93209.91;5063318;28;20190;-47
2023/01/20 10:39:17;;;;;;;4.37;2.30;;;;;;;16.77;65.31;93207.09;5067359;28;20194;-48
2023/01/20 10:41:49;;;;;;;2.07;1.97;;;;;;;16.79;65.19;93208.47;5065790;28;20214;-49
2023/01/20 10:44:16;;;;;;;2.87;2.10;;;;;;;16.75;65.24;93209.09;5064918;28;20194;-50
2023/01/20 10:46:58;;;;;;;2.20;2.00;;;;;;;16.69;65.31;93204.75;5066971;28;20209;-49
2023/01/20 10:49:46;;;;;;;3.43;2.20;;;;;;;16.62;65.45;93209.19;5065018;28;20259;-47
2023/01/20 10:52:35;;;;;;;3.60;2.40;;;;;;;16.53;65.65;93206.06;5066975;28;20260;-48
2023/01/20 10:55:14;;;;;;;3.13;2.50;;;;;;;16.43;65.60;93211.72;5067083;28;20197;-47
2023/01/20 10:57:41;;;;;;;3.27;2.50;;;;;;;16.35;65.85;93209.38;5068170;28;20189;-48
2023/01/20 11:00:20;;;;;;;3.23;2.50;;;;;;;16.28;66.17;93218.97;5068529;28;20325;-48
2023/01/20 11:02:48;;;;;;;3.00;2.40;;;;;;;16.16;66.19;93212.91;5068109;28;20202;-48
2023/01/20 11:05:19;;;;;;;3.87;2.80;;;;;;;16.10;66.32;93213.72;5068074;28;20649;-48
2023/01/20 11:07:49;;;;;;;3.67;2.70;;;;;;;15.99;66.50;93208.22;5066679;28;20194;-48
2023/01/20 11:10:18;;;;;;;3.87;2.90;;;;;;;15.90;66.77;93216.41;5065452;28;20644;-50
2023/01/20 11:12:48;;;;;;;4.53;3.40;;;;;;;15.83;66.99;93211.28;5069223;28;20190;-49
2023/01/20 11:15:19;;;;;;;4.23;3.10;;;;;;;15.76;66.98;93202.81;5068089;28;20251;-49
2023/01/20 11:17:46;;;;;;;5.50;3.23;;;;;;;15.68;67.17;93210.78;5066854;28;20190;-50
2023/01/20 11:20:20;;;;;;;3.93;3.53;;;;;;;15.63;67.22;93219.09;5068816;28;20193;-48
2023/01/20 11:22:49;;;;;;;3.47;2.93;;;;;;;15.57;67.38;93219.88;5069826;28;20198;-48
2023/01/20 11:25:25;;;;;;;3.40;2.73;;;;;;;15.50;67.53;93207.03;5071526;28;20183;-50
2023/01/20 11:27:52;;;;;;;3.97;3.17;;;;;;;15.42;67.77;93196.19;5066299;28;20271;-48
2023/01/20 11:30:28;;;;;;;3.97;3.00;;;;;;;15.35;67.90;93200.56;5069911;28;20190;-48
2023/01/20 11:33:09;;;;;;;3.83;3.30;;;;;;;15.34;68.04;93201.56;5068838;28;20191;-49
2023/01/20 11:35:36;;;;;;;3.70;3.03;;;;;;;15.28;67.65;93196.22;5069695;28;20194;-48
2023/01/20 11:38:23;;;;;;;3.63;3.00;;;;;;;15.22;67.71;93186.72;5066366;28;20273;-47
2023/01/20 11:40:52;;;;;;;6.90;3.23;;;;;;;15.19;67.53;93194.06;5066222;28;20746;-50
2023/01/20 11:43:36;;;;;;;3.50;2.83;;;;;;;15.11;67.77;93189.13;5068501;28;20206;-49
2023/01/20 11:46:21;;;;;;;4.27;2.57;;;;;;;14.86;67.88;93171.78;5067241;28;20190;-47
2023/01/20 11:48:48;;;;;;;2.90;2.70;;;;;;;14.83;67.85;93200.47;5067447;28;20190;-48
2023/01/20 11:51:21;;;;;;;5.10;2.73;;;;;;;14.79;67.59;93202.66;5066692;28;20580;-48
2023/01/20 11:53:49;;;;;;;2.50;2.23;;;;;;;14.69;67.68;93206.63;5067761;28;20190;-48
2023/01/20 11:56:22;;;;;;;3.70;2.40;;;;;;;14.54;67.64;93212.75;5068919;28;20213;-47